Time;durP1;ratioP1;P1;durP2;ratioP2;P2;SDS_P1;SDS_P2;PMS_P1;PMS_P2;Temp;Humidity;BMP_temperature;BMP_pressure;BME280_temperature;BME280_humidity;BME280_pressure;Samples;Min_cycle;Max_cycle;Signal;HPM_P1;HPM_P2
2023/04/29 11:36:45;;;;;;;10.40;5.57;;;;;;;42.49;35.89;101187.63;5333844;23;20574;-81
2023/04/29 11:39:11;;;;;;;11.00;4.73;;;;;;;42.48;36.14;101186.00;4919720;29;21031;-80
2023/04/29 11:41:37;;;;;;;11.43;5.40;;;;;;;42.42;36.19;101168.25;4928890;29;20443;-79
2023/04/29 11:44:05;;;;;;;11.10;4.23;;;;;;;42.49;35.55;101171.28;4930040;29;20439;-80
2023/04/29 11:46:31;;;;;;;11.13;4.30;;;;;;;42.56;36.04;101166.09;4919480;29;20505;-79
2023/04/29 11:48:59;;;;;;;9.30;4.77;;;;;;;42.50;36.04;101148.31;4916847;29;20475;-80
2023/04/29 11:51:25;;;;;;;10.37;4.23;;;;;;;42.49;35.56;101154.91;4916383;29;20956;-81
2023/04/29 11:53:51;;;;;;;9.23;4.70;;;;;;;42.53;35.43;101147.63;4932386;29;20932;-81
2023/04/29 11:56:23;;;;;;;8.10;3.87;;;;;;;42.33;35.81;101154.66;4933615;29;20955;-79
2023/04/29 11:58:49;;;;;;;10.30;3.60;;;;;;;42.13;35.94;101161.66;4930129;29;20436;-79
2023/04/29 12:01:15;;;;;;;9.13;3.73;;;;;;;42.37;35.35;101144.72;4926673;29;20892;-79
2023/04/29 12:03:43;;;;;;;20.17;5.20;;;;;;;42.30;35.38;101153.41;4934197;29;20456;-80
2023/04/29 12:06:09;;;;;;;10.50;3.80;;;;;;;42.36;35.55;101146.63;4936154;29;20467;-81
2023/04/29 12:08:35;;;;;;;13.97;5.13;;;;;;;42.50;35.47;101151.03;4935943;29;20412;-80
2023/04/29 12:11:01;;;;;;;20.40;6.33;;;;;;;42.50;35.92;101140.13;4930748;29;20584;-79
2023/04/29 12:13:28;;;;;;;9.50;4.20;;;;;;;42.64;35.00;101127.84;4927490;29;20857;-81
2023/04/29 12:15:56;;;;;;;12.73;5.63;;;;;;;42.34;35.47;101132.53;4935515;29;20412;-81
2023/04/29 12:18:22;;;;;;;16.20;4.90;;;;;;;42.60;35.01;101120.66;4934905;29;20484;-81
2023/04/29 12:20:53;;;;;;;12.43;5.40;;;;;;;42.57;35.48;101118.56;4917546;29;20500;-81
2023/04/29 12:23:26;;;;;;;9.10;4.93;;;;;;;42.70;35.23;101109.34;4915825;29;20453;-81
2023/04/29 12:25:58;;;;;;;10.00;4.90;;;;;;;42.79;35.16;101103.84;4915737;29;20843;-80
2023/04/29 12:28:25;;;;;;;19.20;6.37;;;;;;;42.78;35.00;101100.28;4916471;29;20456;-81
2023/04/29 12:30:53;;;;;;;10.13;5.13;;;;;;;42.72;35.09;101073.53;4916093;29;20421;-81
2023/04/29 12:33:24;;;;;;;15.63;6.43;;;;;;;42.68;35.03;101083.53;4917223;29;20445;-81
2023/04/29 12:35:51;;;;;;;13.30;4.87;;;;;;;42.74;34.84;101071.28;5381296;23;20418;-80
2023/04/29 12:38:28;;;;;;;13.40;5.30;;;;;;;42.66;35.23;101062.03;4928932;29;20496;-80
2023/04/29 12:40:57;;;;;;;10.40;4.40;;;;;;;42.72;34.83;101057.16;4927617;29;20483;-79
2023/04/29 12:43:30;;;;;;;9.47;4.67;;;;;;;42.83;35.16;101041.97;4935458;29;20439;-81
2023/04/29 12:46:04;;;;;;;10.23;5.30;;;;;;;42.77;34.73;101046.84;4917948;29;20502;-82
2023/04/29 12:48:31;;;;;;;14.93;4.90;;;;;;;42.91;34.89;101044.66;4931324;29;20436;-81
2023/04/29 12:50:58;;;;;;;11.83;6.10;;;;;;;42.85;34.64;101035.06;4933043;29;20580;-81
2023/04/29 12:53:26;;;;;;;17.67;5.80;;;;;;;42.97;34.79;101045.22;4909470;29;20432;-80
2023/04/29 12:55:53;;;;;;;11.00;4.97;;;;;;;43.07;34.53;101044.81;4928492;29;20911;-80
2023/04/29 12:58:19;;;;;;;13.60;4.53;;;;;;;42.86;34.57;101028.47;4934170;29;20813;-80
2023/04/29 13:00:45;;;;;;;8.77;3.77;;;;;;;42.91;34.42;101028.28;4926284;29;20454;-82
2023/04/29 13:03:10;;;;;;;9.93;4.00;;;;;;;43.01;34.56;101015.34;4935327;29;20469;-80
2023/04/29 13:05:36;;;;;;;12.73;4.90;;;;;;;43.04;34.97;101020.94;4934300;29;20460;-80
2023/04/29 13:08:07;;;;;;;11.23;5.30;;;;;;;43.08;34.12;101012.84;4933747;29;20200;-80
2023/04/29 13:10:34;;;;;;;10.23;5.07;;;;;;;42.92;34.09;101008.03;4933079;29;20452;-80
2023/04/29 13:13:00;;;;;;;12.00;5.93;;;;;;;42.88;33.97;100995.38;4934222;29;20502;-81
2023/04/29 13:15:26;;;;;;;15.93;6.33;;;;;;;42.74;34.02;100998.44;4933856;29;20511;-81
2023/04/29 13:17:54;;;;;;;14.30;4.67;;;;;;;42.74;33.05;100990.25;4935346;29;20184;-81
2023/04/29 13:20:20;;;;;;;8.93;3.50;;;;;;;42.87;32.43;100999.25;4935592;29;20400;-80
2023/04/29 13:22:47;;;;;;;13.00;3.80;;;;;;;42.96;32.40;100999.16;4933492;29;20436;-82
2023/04/29 13:25:14;;;;;;;11.57;5.80;;;;;;;42.91;33.50;101011.91;4934345;29;20857;-81
2023/04/29 13:27:40;;;;;;;10.60;3.53;;;;;;;42.87;34.20;101021.09;4933999;29;20431;-80
2023/04/29 13:30:07;;;;;;;18.13;6.73;;;;;;;43.10;34.64;101035.16;4935328;29;20404;-81
2023/04/29 13:32:34;;;;;;;14.23;4.80;;;;;;;43.23;34.20;101041.44;4934016;29;20440;-80
2023/04/29 13:35:00;;;;;;;12.90;4.40;;;;;;;43.22;34.25;101039.81;4935136;29;20459;-81
2023/04/29 13:37:26;;;;;;;8.63;4.53;;;;;;;43.23;33.91;101052.38;4918948;29;20469;-80
2023/04/29 13:39:52;;;;;;;11.63;4.33;;;;;;;43.31;33.74;101048.72;4914698;29;20258;-80
2023/04/29 13:42:18;;;;;;;11.10;3.87;;;;;;;43.23;33.88;101047.69;4913570;29;20565;-80
2023/04/29 13:44:44;;;;;;;12.27;4.30;;;;;;;43.28;34.06;101042.03;4913492;29;20185;-82
2023/04/29 13:47:11;;;;;;;13.23;4.47;;;;;;;43.35;33.78;101050.44;4913494;29;20704;-79
2023/04/29 13:49:43;;;;;;;11.40;3.50;;;;;;;43.46;33.24;101042.59;4914927;29;20185;-80
2023/04/29 13:52:10;;;;;;;10.53;3.20;;;;;;;43.66;33.19;101049.13;4914908;29;20421;-80
2023/04/29 13:54:36;;;;;;;12.03;3.40;;;;;;;43.75;33.04;101068.13;4914910;29;20417;-80
2023/04/29 13:57:05;;;;;;;9.00;2.43;;;;;;;43.85;33.17;101146.94;4914643;29;20449;-79
2023/04/29 13:59:32;;;;;;;13.97;4.67;;;;;;;43.09;28.09;101115.44;4914905;29;20436;-80
2023/04/29 14:01:58;;;;;;;24.73;5.33;;;;;;;42.04;28.66;101109.09;4914666;29;20433;-78
2023/04/29 14:04:25;;;;;;;23.47;6.83;;;;;;;41.32;28.81;101094.44;4914471;29;20428;-82
2023/04/29 14:06:52;;;;;;;26.43;5.80;;;;;;;41.22;29.27;101122.00;4912422;29;20902;-80
2023/04/29 14:09:18;;;;;;;26.00;6.70;;;;;;;40.57;31.89;101134.63;4912568;29;20429;-81
2023/04/29 14:11:45;;;;;;;15.77;6.37;;;;;;;40.36;33.21;101111.88;4912922;29;20413;-81
2023/04/29 14:14:11;;;;;;;15.73;6.67;;;;;;;40.00;34.45;101107.44;4897007;29;20965;-81
2023/04/29 14:16:37;;;;;;;18.67;7.80;;;;;;;39.71;35.81;101103.31;4912730;29;20435;-80
2023/04/29 14:19:03;;;;;;;20.50;6.70;;;;;;;39.41;37.35;101098.66;4912883;29;20185;-80
2023/04/29 14:21:31;;;;;;;25.80;6.60;;;;;;;39.25;37.77;101106.41;4916273;29;20433;-81
2023/04/29 14:24:03;;;;;;;16.60;6.83;;;;;;;39.16;37.51;101103.63;4916263;29;21037;-80
2023/04/29 14:26:30;;;;;;;21.60;7.70;;;;;;;39.43;37.33;101096.44;4917800;29;20551;-80
2023/04/29 14:28:58;;;;;;;15.10;5.60;;;;;;;39.66;36.09;101081.75;4917646;29;20437;-81
2023/04/29 14:31:29;;;;;;;20.53;5.27;;;;;;;39.70;35.86;101065.63;4917596;29;20968;-82
2023/04/29 14:33:56;;;;;;;15.37;5.77;;;;;;;39.93;35.60;101082.63;4916792;29;20443;-81
2023/04/29 14:36:22;;;;;;;15.83;5.07;;;;;;;39.93;35.60;101091.59;4919489;29;20468;-81
2023/04/29 14:38:48;;;;;;;16.40;4.97;;;;;;;40.09;35.45;101092.00;4918494;29;20437;-83
2023/04/29 14:41:14;;;;;;;16.47;6.53;;;;;;;39.97;35.35;101089.84;4918999;29;20524;-82
2023/04/29 14:43:41;;;;;;;19.57;8.10;;;;;;;39.97;35.57;101089.84;4917789;29;20425;-82
2023/04/29 14:46:07;;;;;;;17.53;5.90;;;;;;;39.92;36.12;101098.13;4918689;29;20929;-81
2023/04/29 14:48:34;;;;;;;26.60;6.43;;;;;;;40.04;35.44;101119.31;4918879;29;20455;-83
2023/04/29 14:51:00;;;;;;;20.07;6.00;;;;;;;40.16;36.20;101141.25;4917591;29;20425;-83
2023/04/29 14:53:26;;;;;;;23.00;7.60;;;;;;;40.06;36.00;101152.38;4926474;29;20439;-80
2023/04/29 14:55:52;;;;;;;20.70;7.10;;;;;;;40.12;37.01;101166.63;4936565;29;20447;-81
2023/04/29 14:58:18;;;;;;;20.20;8.30;;;;;;;40.07;37.05;101153.19;4936579;29;20195;-82
2023/04/29 15:00:44;;;;;;;23.13;5.93;;;;;;;40.01;36.59;101134.28;4936537;29;20479;-82
2023/04/29 15:03:11;;;;;;;22.93;6.10;;;;;;;39.94;36.46;101112.19;4936600;29;20951;-82
2023/04/29 15:05:37;;;;;;;24.03;7.60;;;;;;;40.28;36.38;101102.59;4936255;29;20522;-82
2023/04/29 15:08:03;;;;;;;20.33;6.50;;;;;;;40.37;36.18;101089.00;4936211;29;20428;-82
2023/04/29 15:10:29;;;;;;;12.63;5.33;;;;;;;40.34;36.08;101068.69;4936246;29;20180;-82
2023/04/29 15:12:55;;;;;;;18.37;5.63;;;;;;;40.07;35.20;101044.50;4936397;29;20432;-82
2023/04/29 15:15:22;;;;;;;14.30;6.80;;;;;;;39.91;35.51;101047.66;4920803;29;20800;-83
2023/04/29 15:17:48;;;;;;;18.30;6.47;;;;;;;39.82;35.41;101021.56;4916864;29;20433;-84
2023/04/29 15:20:15;;;;;;;13.30;5.10;;;;;;;39.85;35.48;101013.59;4916672;29;20429;-81
2023/04/29 15:22:41;;;;;;;20.27;5.23;;;;;;;40.01;35.67;101005.78;4916751;29;20456;-82
2023/04/29 15:25:08;;;;;;;16.93;7.97;;;;;;;39.87;35.82;100996.97;4916798;29;20433;-82
2023/04/29 15:27:35;;;;;;;14.37;5.67;;;;;;;39.57;36.58;100999.41;4916651;29;20472;-83
2023/04/29 15:30:01;;;;;;;18.40;5.90;;;;;;;39.08;36.28;100979.53;4917942;29;20421;-81
2023/04/29 15:32:30;;;;;;;14.67;6.27;;;;;;;39.08;36.76;100987.69;4917385;29;20409;-82
2023/04/29 15:34:57;;;;;;;12.20;6.13;;;;;;;38.93;36.72;100985.38;4916424;29;20421;-81
2023/04/29 15:37:25;;;;;;;12.17;6.00;;;;;;;39.17;36.13;100993.19;4916229;29;20839;-80
2023/04/29 15:39:51;;;;;;;12.90;7.23;;;;;;;39.10;36.30;100963.78;4916476;29;20433;-81
2023/04/29 15:42:17;;;;;;;10.80;5.60;;;;;;;39.16;35.65;100962.53;4915997;29;20439;-82
2023/04/29 15:44:43;;;;;;;11.13;4.63;;;;;;;39.31;35.79;100944.25;4915878;29;20185;-82
2023/04/29 15:47:09;;;;;;;16.13;7.47;;;;;;;39.51;35.83;100951.81;4916170;29;20453;-82
2023/04/29 15:49:35;;;;;;;12.57;6.07;;;;;;;39.53;35.09;100946.06;4916051;29;20613;-82
2023/04/29 15:52:01;;;;;;;13.63;6.77;;;;;;;39.56;35.16;100942.72;4917520;29;20917;-83
2023/04/29 15:54:27;;;;;;;12.93;5.40;;;;;;;39.71;35.25;100951.25;4915565;29;20425;-82
2023/04/29 15:56:54;;;;;;;14.83;6.90;;;;;;;39.76;34.99;100961.16;4916346;29;20428;-82
2023/04/29 15:59:20;;;;;;;15.03;5.87;;;;;;;39.71;35.04;100964.03;4917093;29;20953;-82
2023/04/29 16:01:46;;;;;;;20.00;5.70;;;;;;;39.76;34.41;100969.31;4915884;29;20425;-82
2023/04/29 16:04:12;;;;;;;15.37;6.43;;;;;;;39.86;34.19;100974.44;4917753;29;20264;-82
2023/04/29 16:06:38;;;;;;;15.83;6.57;;;;;;;39.87;33.88;100996.97;4914154;29;20245;-82
2023/04/29 16:09:04;;;;;;;12.57;5.53;;;;;;;39.81;34.55;101006.38;4912303;29;20569;-81
2023/04/29 16:11:30;;;;;;;16.80;7.83;;;;;;;39.74;34.40;101009.56;4903318;29;20472;-80
2023/04/29 16:13:56;;;;;;;16.80;7.00;;;;;;;39.70;34.22;101003.97;4902773;29;20453;-81
2023/04/29 16:16:23;;;;;;;16.77;7.37;;;;;;;39.82;34.47;101010.69;4913155;29;20504;-81
2023/04/29 16:18:50;;;;;;;13.50;5.17;;;;;;;39.87;34.50;101005.13;4913650;29;20219;-83
2023/04/29 16:21:16;;;;;;;14.83;6.70;;;;;;;39.86;34.10;101012.47;4915277;29;20909;-82
2023/04/29 16:23:42;;;;;;;12.73;5.27;;;;;;;39.57;34.78;101015.72;4917467;29;20421;-81
2023/04/29 16:26:09;;;;;;;15.20;5.40;;;;;;;39.73;34.78;101011.50;4914666;29;20461;-81
2023/04/29 16:28:35;;;;;;;14.00;7.60;;;;;;;39.58;35.63;101011.88;4915438;29;20421;-80
2023/04/29 16:31:01;;;;;;;17.60;10.03;;;;;;;39.69;35.20;101018.66;4915366;29;20801;-81
2023/04/29 16:33:28;;;;;;;17.80;9.23;;;;;;;39.50;35.53;101004.50;4914182;29;20960;-82
2023/04/29 16:35:57;;;;;;;19.47;8.33;;;;;;;39.64;35.53;101013.38;4915157;29;20524;-82
2023/04/29 16:38:23;;;;;;;15.50;7.70;;;;;;;39.63;35.47;100990.03;4911866;29;20564;-82
2023/04/29 16:40:49;;;;;;;20.67;8.97;;;;;;;39.73;35.55;100997.91;4914808;29;20445;-83
2023/04/29 16:43:15;;;;;;;12.60;6.10;;;;;;;39.66;34.98;100994.88;4915004;29;20508;-83
2023/04/29 16:45:42;;;;;;;12.67;7.33;;;;;;;39.78;35.24;101002.41;4914267;29;20451;-81
2023/04/29 16:48:08;;;;;;;16.67;6.37;;;;;;;39.75;35.29;100992.16;4920559;29;20504;-81
2023/04/29 16:50:36;;;;;;;15.03;8.07;;;;;;;39.74;34.75;100987.84;4923571;29;20432;-81
2023/04/29 16:53:03;;;;;;;14.93;7.77;;;;;;;39.69;36.07;100983.34;4913817;29;20426;-81
2023/04/29 16:55:29;;;;;;;16.27;8.50;;;;;;;39.74;35.80;100982.41;4921512;29;20468;-82
2023/04/29 16:57:55;;;;;;;17.17;8.13;;;;;;;39.84;34.84;100992.16;4909124;29;20474;-83
2023/04/29 17:00:22;;;;;;;23.97;7.90;;;;;;;39.88;34.39;100988.50;4902311;29;20425;-82
2023/04/29 17:02:49;;;;;;;15.07;7.53;;;;;;;39.90;35.04;101009.91;4908974;29;20435;-83
2023/04/29 17:05:19;;;;;;;19.30;8.83;;;;;;;39.84;34.49;100997.59;4920856;29;20444;-82
2023/04/29 17:07:46;;;;;;;17.03;9.30;;;;;;;39.93;33.77;100996.50;4897350;29;20454;-82
2023/04/29 17:10:12;;;;;;;18.47;9.87;;;;;;;39.91;34.93;100993.31;4913898;29;20493;-81
2023/04/29 17:12:38;;;;;;;15.00;8.90;;;;;;;39.96;34.41;100985.03;4911696;29;20466;-83
2023/04/29 17:15:06;;;;;;;13.93;9.00;;;;;;;39.99;33.41;101002.59;4896127;29;20875;-82
2023/04/29 17:17:32;;;;;;;15.70;8.57;;;;;;;39.85;34.40;100996.50;4896004;29;20429;-82
2023/04/29 17:19:58;;;;;;;18.93;12.47;;;;;;;39.79;34.57;101012.16;4914720;29;20436;-82
2023/04/29 17:22:24;;;;;;;24.70;13.40;;;;;;;39.91;34.74;101011.53;4914514;29;20429;-82
2023/04/29 17:24:50;;;;;;;24.87;13.33;;;;;;;39.89;34.53;101014.53;4913236;29;20429;-82
2023/04/29 17:27:16;;;;;;;22.43;12.93;;;;;;;39.85;34.79;101015.53;4905821;29;20916;-83
2023/04/29 17:29:42;;;;;;;22.67;14.00;;;;;;;39.87;35.28;101024.94;4907809;29;20828;-82
2023/04/29 17:32:09;;;;;;;28.77;14.30;;;;;;;39.91;34.76;101025.13;4913213;29;20447;-82
2023/04/29 17:34:38;;;;;;;22.10;13.33;;;;;;;39.56;35.00;101037.75;4906235;29;20898;-81
2023/04/29 17:37:05;;;;;;;21.53;12.23;;;;;;;39.72;34.98;101052.53;4898677;29;20477;-81
2023/04/29 17:39:31;;;;;;;19.37;11.67;;;;;;;39.76;34.77;101057.00;4901072;29;20508;-82
2023/04/29 17:41:57;;;;;;;18.53;11.00;;;;;;;39.76;34.81;101057.00;4902231;29;20445;-82
2023/04/29 17:44:23;;;;;;;19.90;13.90;;;;;;;39.84;34.95;101049.19;4904249;29;20456;-81
2023/04/29 17:46:49;;;;;;;18.67;10.97;;;;;;;39.86;34.28;101041.56;4910778;29;20204;-82
2023/04/29 17:49:16;;;;;;;21.10;11.20;;;;;;;39.88;34.37;101039.31;4902124;29;20457;-82
2023/04/29 17:51:42;;;;;;;20.17;13.80;;;;;;;39.72;34.33;101050.63;4911385;29;20451;-81
2023/04/29 17:54:09;;;;;;;19.97;13.70;;;;;;;39.60;34.92;101042.28;4909649;29;20421;-82
2023/04/29 17:56:35;;;;;;;21.00;11.97;;;;;;;39.74;34.86;101059.25;4909398;29;20433;-82
2023/04/29 17:59:04;;;;;;;20.07;12.27;;;;;;;39.72;35.35;101055.25;4910307;29;20425;-80
2023/04/29 18:01:31;;;;;;;18.40;11.83;;;;;;;39.71;36.04;101069.94;4912465;29;20456;-82
2023/04/29 18:03:57;;;;;;;22.37;12.57;;;;;;;39.63;35.89;101076.94;4917521;29;20487;-83
2023/04/29 18:06:23;;;;;;;18.30;10.10;;;;;;;39.49;35.39;101051.78;4912203;29;20544;-81
2023/04/29 18:08:49;;;;;;;18.00;10.20;;;;;;;39.55;36.25;101060.59;4913864;29;20495;-82
2023/04/29 18:11:15;;;;;;;29.27;11.97;;;;;;;39.44;36.16;101055.41;4907827;29;20458;-81
2023/04/29 18:13:40;;;;;;;23.40;12.50;;;;;;;39.56;36.03;101057.53;4908094;29;20437;-81
2023/04/29 18:16:07;;;;;;;22.53;13.77;;;;;;;39.45;36.30;101072.50;4907155;29;20456;-81
2023/04/29 18:18:35;;;;;;;17.43;11.80;;;;;;;39.22;36.50;101080.66;4901480;29;20185;-82
2023/04/29 18:21:01;;;;;;;19.83;12.90;;;;;;;39.35;36.21;101076.28;4913026;29;20501;-80
2023/04/29 18:23:27;;;;;;;19.83;12.70;;;;;;;39.31;36.02;101088.06;4917554;29;20432;-81
2023/04/29 18:25:53;;;;;;;20.43;12.73;;;;;;;39.33;36.51;101075.00;4917108;29;20480;-82
2023/04/29 18:28:19;;;;;;;18.37;13.23;;;;;;;39.57;36.30;101094.44;4917724;29;20452;-83
2023/04/29 18:30:49;;;;;;;17.73;12.00;;;;;;;39.44;35.55;101098.84;4916890;29;20473;-83
2023/04/29 18:33:15;;;;;;;22.57;13.20;;;;;;;39.36;36.20;101109.66;4916593;29;20464;-83
2023/04/29 18:35:42;;;;;;;19.50;12.43;;;;;;;39.43;36.27;101134.44;4915447;29;20525;-81
2023/04/29 18:38:13;;;;;;;20.40;14.23;;;;;;;39.40;35.55;101140.47;4897709;29;20485;-83
2023/04/29 18:40:40;;;;;;;21.87;13.37;;;;;;;39.39;35.53;101134.25;4914827;29;20461;-81
2023/04/29 18:43:06;;;;;;;21.70;11.70;;;;;;;39.38;35.67;101145.44;4916316;29;20531;-81
2023/04/29 18:45:32;;;;;;;17.90;11.30;;;;;;;39.46;35.19;101150.91;4910939;29;20479;-82
2023/04/29 18:47:58;;;;;;;21.00;11.57;;;;;;;39.30;34.65;101146.19;4914822;29;20543;-83
2023/04/29 18:50:24;;;;;;;16.83;11.37;;;;;;;39.44;34.68;101158.56;4915533;29;20436;-82
2023/04/29 18:52:50;;;;;;;17.93;11.00;;;;;;;39.51;34.62;101171.69;4916818;29;20523;-82
2023/04/29 18:55:15;;;;;;;27.13;14.97;;;;;;;39.43;34.28;101184.09;4925850;29;20516;-81
2023/04/29 18:57:42;;;;;;;26.50;16.70;;;;;;;39.53;34.27;101177.59;4916166;29;20425;-82
2023/04/29 19:00:08;;;;;;;23.37;14.63;;;;;;;39.38;34.53;101194.28;4917135;29;20201;-83
2023/04/29 19:02:36;;;;;;;23.40;10.93;;;;;;;39.10;34.13;101194.38;4916369;29;20437;-82
2023/04/29 19:05:05;;;;;;;27.17;12.83;;;;;;;39.26;34.13;101204.88;4918399;29;20520;-82
2023/04/29 19:07:31;;;;;;;22.00;12.67;;;;;;;39.41;34.01;101199.09;4928109;29;20624;-81
2023/04/29 19:09:57;;;;;;;22.17;11.87;;;;;;;39.42;34.31;101203.44;4916931;29;20876;-83
2023/04/29 19:12:24;;;;;;;21.23;13.03;;;;;;;39.48;34.02;101211.13;4916379;29;20444;-83
2023/04/29 19:14:50;;;;;;;25.10;12.97;;;;;;;39.60;34.11;101229.63;4917989;29;20244;-83
2023/04/29 19:17:16;;;;;;;20.90;12.13;;;;;;;39.68;33.97;101228.06;4916561;29;20531;-82
2023/04/29 19:19:42;;;;;;;22.03;13.10;;;;;;;39.58;34.53;101234.50;4916768;29;20429;-83
2023/04/29 19:22:08;;;;;;;29.63;13.57;;;;;;;39.33;34.38;101238.63;4916642;29;20457;-83
2023/04/29 19:24:35;;;;;;;21.27;12.37;;;;;;;39.36;34.27;101234.50;4916983;29;20251;-82
2023/04/29 19:27:02;;;;;;;21.17;13.00;;;;;;;39.38;34.89;101232.28;4912992;29;20477;-82
2023/04/29 19:29:28;;;;;;;27.57;13.60;;;;;;;39.25;35.06;101236.66;4913062;29;20531;-83
2023/04/29 19:31:54;;;;;;;23.90;14.60;;;;;;;39.14;35.14;101238.75;4915989;29;20437;-83
2023/04/29 19:34:20;;;;;;;22.00;16.63;;;;;;;38.99;35.20;101233.69;4916520;29;20483;-83
2023/04/29 19:36:46;;;;;;;26.40;16.00;;;;;;;38.90;35.31;101236.28;4916097;29;20255;-84
2023/04/29 19:39:13;;;;;;;18.47;14.83;;;;;;;39.05;34.88;101235.19;4916279;29;20472;-84
2023/04/29 19:41:39;;;;;;;31.80;15.60;;;;;;;38.56;35.58;101249.47;4912423;29;20450;-83
2023/04/29 19:44:05;;;;;;;21.60;13.33;;;;;;;38.71;34.73;101241.00;4905012;29;20434;-83
2023/04/29 19:46:32;;;;;;;25.83;12.50;;;;;;;38.71;34.86;101262.69;4915629;29;20461;-83
2023/04/29 19:48:58;;;;;;;22.90;13.10;;;;;;;38.82;34.73;101261.44;4916008;29;20520;-82
2023/04/29 19:51:24;;;;;;;15.20;11.10;;;;;;;38.81;34.80;101270.69;4915992;29;20421;-83
2023/04/29 19:53:51;;;;;;;24.90;12.63;;;;;;;38.83;34.86;101260.31;4920255;29;20428;-82
2023/04/29 19:56:18;;;;;;;21.00;11.90;;;;;;;38.71;35.00;101260.00;4920450;29;21061;-82
2023/04/29 19:58:44;;;;;;;22.93;11.27;;;;;;;38.76;34.77;101267.25;4913867;29;20441;-83
2023/04/29 20:01:10;;;;;;;23.90;11.20;;;;;;;38.56;34.92;101276.56;4914776;29;20448;-82
2023/04/29 20:03:38;;;;;;;17.60;10.90;;;;;;;38.56;35.25;101288.22;4915959;29;20275;-82
2023/04/29 20:06:04;;;;;;;23.33;10.60;;;;;;;38.56;35.26;101282.81;4915810;29;20224;-82
2023/04/29 20:08:30;;;;;;;20.60;11.90;;;;;;;38.52;35.49;101292.63;4915888;29;20504;-83
2023/04/29 20:10:57;;;;;;;18.87;10.03;;;;;;;38.55;35.50;101297.47;4915915;29;20510;-82
2023/04/29 20:13:23;;;;;;;20.47;11.33;;;;;;;38.69;35.13;101294.75;4917153;29;20421;-82
2023/04/29 20:15:49;;;;;;;18.00;11.40;;;;;;;38.70;35.29;101299.88;4915670;29;20445;-84
2023/04/29 20:18:16;;;;;;;16.03;10.50;;;;;;;38.62;35.44;101308.72;4915261;29;20196;-82
2023/04/29 20:20:42;;;;;;;15.20;9.00;;;;;;;39.01;35.26;101322.91;4908860;29;20219;-83
2023/04/29 20:23:08;;;;;;;22.30;11.90;;;;;;;38.61;35.73;101314.41;4901407;28;20445;-82
2023/04/29 20:25:34;;;;;;;19.53;11.63;;;;;;;38.62;35.63;101329.59;4913101;29;20496;-82
2023/04/29 20:28:00;;;;;;;20.83;13.93;;;;;;;38.69;35.90;101327.28;4914016;29;20197;-83
2023/04/29 20:30:26;;;;;;;16.43;10.40;;;;;;;38.75;35.94;101336.97;4915208;29;20436;-83
2023/04/29 20:32:52;;;;;;;24.43;12.30;;;;;;;38.71;35.99;101330.50;4915255;29;20432;-83
2023/04/29 20:35:19;;;;;;;17.00;9.47;;;;;;;38.27;36.67;101320.19;4911185;29;20438;-82
2023/04/29 20:37:46;;;;;;;14.90;8.80;;;;;;;38.57;36.37;101325.06;4908181;29;20567;-82
2023/04/29 20:40:12;;;;;;;18.73;8.80;;;;;;;38.39;36.64;101315.09;4915403;29;20440;-82
2023/04/29 20:42:38;;;;;;;13.70;8.83;;;;;;;38.28;37.09;101308.25;4914015;29;20432;-82
2023/04/29 20:45:05;;;;;;;14.43;8.17;;;;;;;38.64;36.66;101311.91;4914489;29;20477;-82
2023/04/29 20:47:32;;;;;;;14.47;7.87;;;;;;;38.54;36.12;101311.28;4914935;29;20472;-82
2023/04/29 20:49:58;;;;;;;14.13;8.20;;;;;;;38.58;36.26;101326.66;4914627;29;20441;-82
2023/04/29 20:52:26;;;;;;;12.47;6.27;;;;;;;38.34;36.79;101323.31;4915965;29;20456;-82
2023/04/29 20:54:52;;;;;;;11.00;4.93;;;;;;;38.35;36.58;101303.25;4926456;29;20420;-83
2023/04/29 20:57:18;;;;;;;10.43;4.90;;;;;;;38.24;36.59;101326.97;4918938;29;20448;-83
2023/04/29 20:59:45;;;;;;;14.00;5.40;;;;;;;38.14;36.71;101317.13;4922773;29;20472;-83
2023/04/29 21:02:11;;;;;;;11.77;4.80;;;;;;;38.53;36.26;101324.03;4914726;29;20999;-83
2023/04/29 21:04:37;;;;;;;10.40;5.07;;;;;;;38.44;36.33;101337.50;4915510;29;20424;-83
2023/04/29 21:07:03;;;;;;;8.63;5.00;;;;;;;38.14;36.42;101303.56;4914513;29;20475;-83
2023/04/29 21:09:31;;;;;;;7.43;3.13;;;;;;;38.08;36.79;101307.47;4914812;29;20481;-83
2023/04/29 21:11:58;;;;;;;9.53;4.67;;;;;;;38.29;36.28;101312.56;4914907;29;20436;-83
2023/04/29 21:14:27;;;;;;;10.50;5.20;;;;;;;37.61;37.12;101317.38;4914866;29;20428;-84
2023/04/29 21:16:53;;;;;;;9.50;4.00;;;;;;;37.85;36.88;101325.44;4914083;29;20425;-82
2023/04/29 21:19:19;;;;;;;7.80;3.50;;;;;;;37.84;36.89;101323.84;4910883;29;20957;-83
2023/04/29 21:21:45;;;;;;;9.53;3.67;;;;;;;38.14;36.20;101330.66;4905494;29;20792;-84
2023/04/29 21:24:11;;;;;;;8.10;3.40;;;;;;;37.87;36.93;101322.44;4905370;29;20543;-83
2023/04/29 21:26:37;;;;;;;13.80;4.93;;;;;;;38.05;36.34;101323.50;4912662;29;21009;-82
2023/04/29 21:29:03;;;;;;;8.70;3.70;;;;;;;38.17;36.26;101324.63;4902206;29;20198;-83
2023/04/29 21:31:30;;;;;;;10.87;3.70;;;;;;;38.35;36.03;101327.63;4913337;29;20829;-83
2023/04/29 21:33:56;;;;;;;8.70;3.37;;;;;;;38.51;35.07;101312.72;4914640;29;20424;-83
2023/04/29 21:36:22;;;;;;;9.20;4.50;;;;;;;38.42;35.83;101328.03;4914258;29;20447;-84
2023/04/29 21:38:48;;;;;;;10.30;4.20;;;;;;;38.37;35.90;101309.97;4910771;29;20466;-83
2023/04/29 21:41:27;;;;;;;8.60;4.07;;;;;;;38.41;35.95;101315.59;4912422;29;20461;-84
2023/04/29 21:43:58;;;;;;;12.63;4.80;;;;;;;38.39;35.87;101310.47;4906957;29;20428;-83
2023/04/29 21:46:26;;;;;;;10.23;4.27;;;;;;;38.26;35.84;101296.88;4909167;29;20470;-84
2023/04/29 21:48:52;;;;;;;9.70;3.80;;;;;;;38.48;35.81;101318.72;4914571;29;21000;-82
2023/04/29 21:51:21;;;;;;;15.33;5.27;;;;;;;38.47;35.73;101308.97;4913684;29;20429;-83
2023/04/29 21:53:50;;;;;;;15.43;4.97;;;;;;;38.33;36.25;101308.16;4917163;29;20428;-83
2023/04/29 21:56:16;;;;;;;10.10;4.33;;;;;;;38.33;36.04;101310.88;4922424;29;20425;-83
2023/04/29 21:58:42;;;;;;;10.47;5.40;;;;;;;38.34;36.25;101298.94;4913608;29;20457;-84
2023/04/29 22:01:25;;;;;;;18.90;5.73;;;;;;;38.39;36.19;101312.38;4913509;29;20433;-85
2023/04/29 22:03:55;;;;;;;9.50;3.83;;;;;;;38.33;36.27;101306.25;4914295;29;20513;-84
2023/04/29 22:06:22;;;;;;;10.17;5.30;;;;;;;38.45;36.11;101311.19;4912838;29;20816;-85
2023/04/29 22:08:48;;;;;;;17.97;6.43;;;;;;;38.33;36.37;101305.44;4913743;29;20428;-84
2023/04/29 22:11:14;;;;;;;10.17;5.07;;;;;;;38.47;36.20;101310.88;4938290;23;20452;-83
2023/04/29 22:13:41;;;;;;;8.90;4.93;;;;;;;38.55;35.66;101315.59;4914453;29;21150;-84
2023/04/29 22:16:07;;;;;;;13.17;5.33;;;;;;;38.39;35.89;101301.56;4915146;29;20539;-83
2023/04/29 22:18:33;;;;;;;10.30;5.30;;;;;;;38.47;35.89;101298.13;4914895;29;20484;-84
2023/04/29 22:20:59;;;;;;;14.60;7.00;;;;;;;38.38;36.08;101300.75;4915118;29;20441;-85
2023/04/29 22:23:25;;;;;;;10.33;5.63;;;;;;;38.24;36.33;101299.06;4916175;29;20184;-84
2023/04/29 22:25:51;;;;;;;9.50;4.80;;;;;;;38.02;36.24;101291.59;4915637;29;20896;-83
2023/04/29 22:28:17;;;;;;;10.20;4.57;;;;;;;38.28;35.85;101297.41;4915959;29;20196;-84
2023/04/29 22:30:43;;;;;;;10.13;6.07;;;;;;;38.33;35.98;101287.28;4916353;29;20439;-85
2023/04/29 22:33:11;;;;;;;12.13;5.00;;;;;;;38.39;35.87;101299.63;4921356;29;20424;-83
2023/04/29 22:35:37;;;;;;;10.33;5.07;;;;;;;38.51;35.72;101290.22;4921269;29;20432;-85
2023/04/29 22:38:03;;;;;;;11.03;4.57;;;;;;;38.38;35.72;101286.41;4915726;29;20870;-83
2023/04/29 22:40:29;;;;;;;13.00;4.83;;;;;;;38.36;35.82;101283.16;4915336;29;20471;-85
2023/04/29 22:42:55;;;;;;;11.93;4.00;;;;;;;38.41;35.41;101272.22;4917514;29;20460;-83
2023/04/29 22:45:21;;;;;;;10.23;4.40;;;;;;;38.43;35.27;101265.44;4918759;29;20456;-84
2023/04/29 22:47:47;;;;;;;9.90;4.33;;;;;;;38.29;35.76;101261.06;4918532;29;20516;-84
2023/04/29 22:50:12;;;;;;;9.63;4.27;;;;;;;38.22;35.73;101261.44;4919355;29;20192;-84